Terminal Aerodrome Forecast
Issued by NWS

Home | Current Version | Previous Version | Text Only | Print | Product List | Glossary On
Versions: 1 2 3 4 5 6 7 8 9 10 11 12 13 14
000
FTUS44 KTSA 180500
TAFRVS
TAF
KRVS 180520Z 1806/1906 20004KT P6SM FEW070 OVC250
     FM181000 14003KT 5SM BR VCTS SCT025CB BKN150
     FM181600 16008KT P6SM SCT050 BKN100
     FM190000 16004KT P6SM BKN250=

USA.gov is the U.S. government's official web portal to all federal, state and local government web resources and services.